sensor_id;sensor_type;location;lat;lon;timestamp;pressure;altitude;pressure_sealevel;temperature;humidity
27425;BME280;15244;49.088;11.886;2023-01-08T00:04:15;95408.47;;;8.79;52.47
27425;BME280;15244;49.088;11.886;2023-01-08T00:09:18;95408.41;;;8.76;52.46
27425;BME280;15244;49.088;11.886;2023-01-08T00:14:20;95408.78;;;8.71;52.66
27425;BME280;15244;49.088;11.886;2023-01-08T00:19:22;95388.19;;;8.66;52.24
27425;BME280;15244;49.088;11.886;2023-01-08T00:24:24;95384.66;;;8.62;52.36
27425;BME280;15244;49.088;11.886;2023-01-08T00:29:26;95386.16;;;8.56;52.36
27425;BME280;15244;49.088;11.886;2023-01-08T00:34:28;95386.16;;;8.52;52.47
27425;BME280;15244;49.088;11.886;2023-01-08T00:39:31;95381.88;;;8.51;52.60
27425;BME280;15244;49.088;11.886;2023-01-08T00:44:33;95362.47;;;8.49;52.50
27425;BME280;15244;49.088;11.886;2023-01-08T00:49:36;95358.16;;;8.48;52.95
27425;BME280;15244;49.088;11.886;2023-01-08T00:54:38;95362.81;;;8.48;52.87
27425;BME280;15244;49.088;11.886;2023-01-08T00:59:40;95355.44;;;8.44;53.41
27425;BME280;15244;49.088;11.886;2023-01-08T01:04:42;95358.53;;;8.43;53.13
27425;BME280;15244;49.088;11.886;2023-01-08T01:09:45;95364.34;;;8.41;52.93
27425;BME280;15244;49.088;11.886;2023-01-08T01:14:47;95362.41;;;8.42;53.20
27425;BME280;15244;49.088;11.886;2023-01-08T01:19:49;95356.94;;;8.38;53.26
27425;BME280;15244;49.088;11.886;2023-01-08T01:24:52;95347.97;;;8.34;53.00
27425;BME280;15244;49.088;11.886;2023-01-08T01:29:54;95355.28;;;8.27;53.15
27425;BME280;15244;49.088;11.886;2023-01-08T01:34:56;95349.41;;;8.17;53.17
27425;BME280;15244;49.088;11.886;2023-01-08T01:39:58;95347.44;;;8.11;52.48
27425;BME280;15244;49.088;11.886;2023-01-08T01:45:15;95364.44;;;8.04;52.72
27425;BME280;15244;49.088;11.886;2023-01-08T01:50:26;95354.28;;;7.97;52.67
27425;BME280;15244;49.088;11.886;2023-01-08T01:55:31;95344.53;;;7.89;52.49
27425;BME280;15244;49.088;11.886;2023-01-08T02:00:36;95349.09;;;7.81;52.12
27425;BME280;15244;49.088;11.886;2023-01-08T02:11:29;95328.84;;;7.68;52.55
27425;BME280;15244;49.088;11.886;2023-01-08T02:27:10;95329.53;;;7.62;52.93
27425;BME280;15244;49.088;11.886;2023-01-08T02:32:13;95328.78;;;7.61;52.93
27425;BME280;15244;49.088;11.886;2023-01-08T02:37:15;95319.09;;;7.60;53.20
27425;BME280;15244;49.088;11.886;2023-01-08T02:42:54;95310.16;;;7.59;53.32
27425;BME280;15244;49.088;11.886;2023-01-08T02:48:08;95310.53;;;7.58;53.71
27425;BME280;15244;49.088;11.886;2023-01-08T02:53:20;95294.25;;;7.58;53.89
27425;BME280;15244;49.088;11.886;2023-01-08T02:58:25;95288.41;;;7.56;54.09
27425;BME280;15244;49.088;11.886;2023-01-08T03:03:31;95287.66;;;7.55;53.92
27425;BME280;15244;49.088;11.886;2023-01-08T03:08:39;95282.59;;;7.54;54.13
27425;BME280;15244;49.088;11.886;2023-01-08T03:18:58;95279.50;;;7.55;54.31
27425;BME280;15244;49.088;11.886;2023-01-08T03:24:02;95297.34;;;7.56;54.14
27425;BME280;15244;49.088;11.886;2023-01-08T03:29:10;95285.72;;;7.56;54.39
27425;BME280;15244;49.088;11.886;2023-01-08T03:34:15;95286.47;;;7.56;54.20
27425;BME280;15244;49.088;11.886;2023-01-08T03:39:20;95283.78;;;7.56;54.15
27425;BME280;15244;49.088;11.886;2023-01-08T03:44:24;95270.59;;;7.55;54.31
27425;BME280;15244;49.088;11.886;2023-01-08T03:49:28;95266.69;;;7.52;53.77
27425;BME280;15244;49.088;11.886;2023-01-08T03:54:33;95277.13;;;7.50;53.86
27425;BME280;15244;49.088;11.886;2023-01-08T03:59:35;95268.59;;;7.48;53.79
27425;BME280;15244;49.088;11.886;2023-01-08T04:04:37;95261.63;;;7.47;53.96
27425;BME280;15244;49.088;11.886;2023-01-08T04:09:39;95259.63;;;7.44;53.65
27425;BME280;15244;49.088;11.886;2023-01-08T04:14:41;95244.13;;;7.41;53.90
27425;BME280;15244;49.088;11.886;2023-01-08T04:19:43;95222.41;;;7.37;53.90
27425;BME280;15244;49.088;11.886;2023-01-08T04:24:45;95217.72;;;7.34;53.82
27425;BME280;15244;49.088;11.886;2023-01-08T04:29:47;95200.66;;;7.30;53.63
27425;BME280;15244;49.088;11.886;2023-01-08T04:34:49;95198.69;;;7.27;53.31
27425;BME280;15244;49.088;11.886;2023-01-08T04:39:51;95192.84;;;7.25;53.16
27425;BME280;15244;49.088;11.886;2023-01-08T04:44:53;95177.72;;;7.21;53.35
27425;BME280;15244;49.088;11.886;2023-01-08T04:49:55;95179.22;;;7.18;53.36
27425;BME280;15244;49.088;11.886;2023-01-08T04:54:57;95175.34;;;7.15;53.13
27425;BME280;15244;49.088;11.886;2023-01-08T04:59:59;95178.41;;;7.14;53.39
27425;BME280;15244;49.088;11.886;2023-01-08T05:05:01;95178.41;;;7.10;53.25
27425;BME280;15244;49.088;11.886;2023-01-08T05:10:03;95152.84;;;7.11;53.55
27425;BME280;15244;49.088;11.886;2023-01-08T05:15:06;95168.31;;;7.07;53.40
27425;BME280;15244;49.088;11.886;2023-01-08T05:20:08;95161.31;;;7.06;53.42
27425;BME280;15244;49.088;11.886;2023-01-08T05:25:10;95165.59;;;7.07;53.38
27425;BME280;15244;49.088;11.886;2023-01-08T05:30:12;95184.53;;;7.04;53.55
27425;BME280;15244;49.088;11.886;2023-01-08T05:35:14;95171.34;;;7.02;53.25
27425;BME280;15244;49.088;11.886;2023-01-08T05:40:15;95170.19;;;7.00;53.18
27425;BME280;15244;49.088;11.886;2023-01-08T05:45:17;95164.75;;;7.00;53.12
27425;BME280;15244;49.088;11.886;2023-01-08T05:50:19;95141.13;;;6.97;53.17
27425;BME280;15244;49.088;11.886;2023-01-08T05:55:21;95141.84;;;6.93;53.13
27425;BME280;15244;49.088;11.886;2023-01-08T06:00:23;95150.31;;;6.88;53.38
27425;BME280;15244;49.088;11.886;2023-01-08T06:05:27;95172.38;;;6.87;52.83
27425;BME280;15244;49.088;11.886;2023-01-08T06:10:29;95170.41;;;6.84;53.21
27425;BME280;15244;49.088;11.886;2023-01-08T06:15:31;95164.59;;;6.82;52.95
27425;BME280;15244;49.088;11.886;2023-01-08T06:20:32;95159.53;;;6.80;52.57
27425;BME280;15244;49.088;11.886;2023-01-08T06:25:35;95144.44;;;6.79;53.23
27425;BME280;15244;49.088;11.886;2023-01-08T06:30:37;95153.31;;;6.76;52.71
27425;BME280;15244;49.088;11.886;2023-01-08T06:35:39;95163.34;;;6.76;53.13
27425;BME280;15244;49.088;11.886;2023-01-08T06:40:40;95154.44;;;6.75;52.67
27425;BME280;15244;49.088;11.886;2023-01-08T06:45:42;95150.97;;;6.75;52.95
27425;BME280;15244;49.088;11.886;2023-01-08T06:50:44;95149.44;;;6.73;52.61
27425;BME280;15244;49.088;11.886;2023-01-08T06:55:46;95159.47;;;6.73;53.03
27425;BME280;15244;49.088;11.886;2023-01-08T07:00:48;95155.22;;;6.72;53.24
27425;BME280;15244;49.088;11.886;2023-01-08T07:05:50;95157.13;;;6.71;53.17
27425;BME280;15244;49.088;11.886;2023-01-08T07:10:52;95157.50;;;6.70;52.89
27425;BME280;15244;49.088;11.886;2023-01-08T07:15:54;95154.03;;;6.69;53.29
27425;BME280;15244;49.088;11.886;2023-01-08T07:20:56;95147.44;;;6.70;53.14
27425;BME280;15244;49.088;11.886;2023-01-08T07:25:59;95146.66;;;6.70;53.10
27425;BME280;15244;49.088;11.886;2023-01-08T07:31:04;95160.22;;;6.70;53.29
27425;BME280;15244;49.088;11.886;2023-01-08T07:36:06;95154.78;;;6.70;53.38
27425;BME280;15244;49.088;11.886;2023-01-08T07:41:10;95158.69;;;6.72;52.88
27425;BME280;15244;49.088;11.886;2023-01-08T07:46:15;95159.09;;;6.75;53.24
27425;BME280;15244;49.088;11.886;2023-01-08T07:51:17;95170.75;;;6.79;53.15
27425;BME280;15244;49.088;11.886;2023-01-08T07:56:22;95167.31;;;6.82;53.42
27425;BME280;15244;49.088;11.886;2023-01-08T08:01:27;95168.84;;;6.83;52.91
27425;BME280;15244;49.088;11.886;2023-01-08T08:06:30;95168.09;;;6.86;53.08
27425;BME280;15244;49.088;11.886;2023-01-08T08:11:32;95151.84;;;6.86;53.16
27425;BME280;15244;49.088;11.886;2023-01-08T08:16:33;95159.97;;;6.86;53.03
27425;BME280;15244;49.088;11.886;2023-01-08T08:21:35;95156.91;;;6.87;53.21
27425;BME280;15244;49.088;11.886;2023-01-08T08:26:37;95164.66;;;6.89;53.15
27425;BME280;15244;49.088;11.886;2023-01-08T08:31:39;95172.00;;;6.88;53.04
27425;BME280;15244;49.088;11.886;2023-01-08T08:36:42;95167.31;;;6.85;52.69
27425;BME280;15244;49.088;11.886;2023-01-08T08:41:44;95173.50;;;6.86;52.82
27425;BME280;15244;49.088;11.886;2023-01-08T08:46:46;95161.53;;;6.87;53.43
27425;BME280;15244;49.088;11.886;2023-01-08T08:51:48;95163.09;;;6.88;53.32
27425;BME280;15244;49.088;11.886;2023-01-08T08:56:50;95163.13;;;6.91;52.91
27425;BME280;15244;49.088;11.886;2023-01-08T09:01:53;95148.44;;;6.92;53.53
27425;BME280;15244;49.088;11.886;2023-01-08T09:06:55;95141.06;;;6.93;53.32
27425;BME280;15244;49.088;11.886;2023-01-08T09:11:57;95150.38;;;6.95;53.29
27425;BME280;15244;49.088;11.886;2023-01-08T09:16:59;95165.53;;;7.00;53.33
27425;BME280;15244;49.088;11.886;2023-01-08T09:22:01;95171.78;;;7.04;53.73
27425;BME280;15244;49.088;11.886;2023-01-08T09:27:03;95165.59;;;7.07;53.27
27425;BME280;15244;49.088;11.886;2023-01-08T09:32:06;95169.91;;;7.12;53.80
27425;BME280;15244;49.088;11.886;2023-01-08T09:37:08;95164.84;;;7.14;53.73
27425;BME280;15244;49.088;11.886;2023-01-08T09:42:12;95167.25;;;7.19;53.74
27425;BME280;15244;49.088;11.886;2023-01-08T09:47:34;95171.94;;;7.26;53.72
27425;BME280;15244;49.088;11.886;2023-01-08T09:52:38;95165.41;;;7.30;53.89
27425;BME280;15244;49.088;11.886;2023-01-08T09:57:44;95154.56;;;7.34;53.63
27425;BME280;15244;49.088;11.886;2023-01-08T10:02:47;95148.78;;;7.39;54.19
27425;BME280;15244;49.088;11.886;2023-01-08T10:07:49;95147.69;;;7.47;54.26
27425;BME280;15244;49.088;11.886;2023-01-08T10:12:52;95151.97;;;7.52;54.16
27425;BME280;15244;49.088;11.886;2023-01-08T10:18:03;95126.44;;;7.56;53.96
27425;BME280;15244;49.088;11.886;2023-01-08T10:23:14;95128.00;;;7.61;53.94
27425;BME280;15244;49.088;11.886;2023-01-08T10:28:34;95115.66;;;7.67;54.01
27425;BME280;15244;49.088;11.886;2023-01-08T10:33:39;95116.47;;;7.75;53.84
27425;BME280;15244;49.088;11.886;2023-01-08T10:38:52;95109.88;;;7.79;53.92
27425;BME280;15244;49.088;11.886;2023-01-08T10:44:06;95102.97;;;7.89;53.82
27425;BME280;15244;49.088;11.886;2023-01-08T10:49:36;95104.16;;;7.95;54.12
27425;BME280;15244;49.088;11.886;2023-01-08T10:54:40;95101.09;;;8.00;54.04
27425;BME280;15244;49.088;11.886;2023-01-08T10:59:42;95076.66;;;8.04;54.14
27425;BME280;15244;49.088;11.886;2023-01-08T11:04:50;95081.72;;;8.09;54.00
27425;BME280;15244;49.088;11.886;2023-01-08T11:09:54;95059.63;;;8.14;54.01
27425;BME280;15244;49.088;11.886;2023-01-08T11:14:56;95064.31;;;8.21;54.25
27425;BME280;15244;49.088;11.886;2023-01-08T11:20:27;95063.53;;;8.28;54.24
27425;BME280;15244;49.088;11.886;2023-01-08T11:25:30;95057.34;;;8.31;54.08
27425;BME280;15244;49.088;11.886;2023-01-08T11:30:35;95067.03;;;8.35;54.22
27425;BME280;15244;49.088;11.886;2023-01-08T11:35:40;95075.97;;;8.32;53.85
27425;BME280;15244;49.088;11.886;2023-01-08T11:40:50;95083.34;;;8.28;54.12
27425;BME280;15244;49.088;11.886;2023-01-08T11:46:23;95055.00;;;8.25;54.04
27425;BME280;15244;49.088;11.886;2023-01-08T11:51:30;95059.28;;;8.30;54.27
27425;BME280;15244;49.088;11.886;2023-01-08T12:07:37;95033.72;;;8.42;54.31
27425;BME280;15244;49.088;11.886;2023-01-08T12:23:27;95015.88;;;8.55;54.70
27425;BME280;15244;49.088;11.886;2023-01-08T12:29:01;95027.13;;;8.57;54.78
27425;BME280;15244;49.088;11.886;2023-01-08T12:34:15;95023.28;;;8.58;54.59
27425;BME280;15244;49.088;11.886;2023-01-08T12:39:31;95011.22;;;8.59;54.66
27425;BME280;15244;49.088;11.886;2023-01-08T12:44:36;95003.47;;;8.58;54.76
27425;BME280;15244;49.088;11.886;2023-01-08T12:49:46;95001.91;;;8.57;54.77
27425;BME280;15244;49.088;11.886;2023-01-08T12:55:16;94986.75;;;8.56;54.75
27425;BME280;15244;49.088;11.886;2023-01-08T13:05:46;94979.00;;;8.51;54.90
27425;BME280;15244;49.088;11.886;2023-01-08T13:10:50;94966.97;;;8.48;54.76
27425;BME280;15244;49.088;11.886;2023-01-08T13:21:31;94955.34;;;8.44;54.82
27425;BME280;15244;49.088;11.886;2023-01-08T13:26:35;94951.44;;;8.45;54.79
27425;BME280;15244;49.088;11.886;2023-01-08T13:31:38;94946.44;;;8.43;54.69
27425;BME280;15244;49.088;11.886;2023-01-08T13:36:54;94940.59;;;8.41;54.81
27425;BME280;15244;49.088;11.886;2023-01-08T13:42:21;94940.22;;;8.39;54.92
27425;BME280;15244;49.088;11.886;2023-01-08T13:47:33;94933.97;;;8.35;54.64
27425;BME280;15244;49.088;11.886;2023-01-08T13:52:44;94928.53;;;8.28;54.56
27425;BME280;15244;49.088;11.886;2023-01-08T13:57:52;94934.38;;;8.23;54.53
27425;BME280;15244;49.088;11.886;2023-01-08T14:02:55;94934.75;;;8.21;54.43
27425;BME280;15244;49.088;11.886;2023-01-08T14:07:57;94927.38;;;8.18;54.71
27425;BME280;15244;49.088;11.886;2023-01-08T14:13:07;94920.00;;;8.15;54.80
27425;BME280;15244;49.088;11.886;2023-01-08T14:18:11;94932.41;;;8.16;54.65
27425;BME280;15244;49.088;11.886;2023-01-08T14:23:25;94947.94;;;8.16;54.67
27425;BME280;15244;49.088;11.886;2023-01-08T14:28:27;94966.53;;;8.14;54.64
27425;BME280;15244;49.088;11.886;2023-01-08T14:33:33;94964.59;;;8.11;54.67
27425;BME280;15244;49.088;11.886;2023-01-08T14:38:37;94949.88;;;8.08;54.73
27425;BME280;15244;49.088;11.886;2023-01-08T14:43:45;94959.16;;;8.07;54.93
27425;BME280;15244;49.088;11.886;2023-01-08T14:48:49;94968.84;;;8.04;55.01
27425;BME280;15244;49.088;11.886;2023-01-08T14:53:53;94961.47;;;8.01;55.22
27425;BME280;15244;49.088;11.886;2023-01-08T14:58:57;94967.28;;;8.00;55.08
27425;BME280;15244;49.088;11.886;2023-01-08T15:04:05;94952.16;;;7.99;55.19
27425;BME280;15244;49.088;11.886;2023-01-08T15:09:34;94953.34;;;7.98;55.01
27425;BME280;15244;49.088;11.886;2023-01-08T15:14:36;94952.16;;;7.95;55.29
27425;BME280;15244;49.088;11.886;2023-01-08T15:19:41;94959.16;;;7.93;55.39
27425;BME280;15244;49.088;11.886;2023-01-08T15:24:55;94952.53;;;7.90;54.97
27425;BME280;15244;49.088;11.886;2023-01-08T15:29:58;94944.38;;;7.87;55.03
27425;BME280;15244;49.088;11.886;2023-01-08T15:35:12;94950.22;;;7.85;55.21
27425;BME280;15244;49.088;11.886;2023-01-08T15:40:15;94940.91;;;7.82;55.29
27425;BME280;15244;49.088;11.886;2023-01-08T15:45:20;94939.72;;;7.84;55.32
27425;BME280;15244;49.088;11.886;2023-01-08T15:50:24;94927.72;;;7.81;55.32
27425;BME280;15244;49.088;11.886;2023-01-08T15:55:27;94928.06;;;7.79;55.45
27425;BME280;15244;49.088;11.886;2023-01-08T16:00:28;94911.81;;;7.76;55.56
27425;BME280;15244;49.088;11.886;2023-01-08T16:05:31;94897.84;;;7.74;55.38
27425;BME280;15244;49.088;11.886;2023-01-08T16:10:33;94902.91;;;7.75;55.77
27425;BME280;15244;49.088;11.886;2023-01-08T16:15:37;94893.97;;;7.75;55.38
27425;BME280;15244;49.088;11.886;2023-01-08T16:20:39;94895.53;;;7.76;55.42
27425;BME280;15244;49.088;11.886;2023-01-08T16:25:41;94891.63;;;7.77;55.67
27425;BME280;15244;49.088;11.886;2023-01-08T16:30:43;94879.63;;;7.78;55.85
27425;BME280;15244;49.088;11.886;2023-01-08T16:36:01;94871.09;;;7.79;55.79
27425;BME280;15244;49.088;11.886;2023-01-08T16:41:04;94860.25;;;7.79;55.60
27425;BME280;15244;49.088;11.886;2023-01-08T16:46:14;94853.66;;;7.80;55.72
27425;BME280;15244;49.088;11.886;2023-01-08T16:51:17;94854.03;;;7.79;55.98
27425;BME280;15244;49.088;11.886;2023-01-08T16:56:19;94828.47;;;7.76;56.04
27425;BME280;15244;49.088;11.886;2023-01-08T17:01:23;94819.16;;;7.74;55.84
27425;BME280;15244;49.088;11.886;2023-01-08T17:06:24;94823.81;;;7.73;56.22
27425;BME280;15244;49.088;11.886;2023-01-08T17:11:26;94800.94;;;7.74;56.29
27425;BME280;15244;49.088;11.886;2023-01-08T17:16:28;94787.00;;;7.72;56.03
27425;BME280;15244;49.088;11.886;2023-01-08T17:21:31;94773.81;;;7.71;56.24
27425;BME280;15244;49.088;11.886;2023-01-08T17:26:35;94770.34;;;7.70;56.27
27425;BME280;15244;49.088;11.886;2023-01-08T17:31:37;94774.19;;;7.69;55.95
27425;BME280;15244;49.088;11.886;2023-01-08T17:36:47;94747.06;;;7.66;56.11
27425;BME280;15244;49.088;11.886;2023-01-08T17:41:56;94754.44;;;7.65;56.51
27425;BME280;15244;49.088;11.886;2023-01-08T17:47:18;94740.88;;;7.65;56.39
27425;BME280;15244;49.088;11.886;2023-01-08T17:52:24;94731.97;;;7.65;56.52
27425;BME280;15244;49.088;11.886;2023-01-08T17:57:28;94728.47;;;7.64;56.05
27425;BME280;15244;49.088;11.886;2023-01-08T18:02:45;94730.03;;;7.65;56.50
27425;BME280;15244;49.088;11.886;2023-01-08T18:07:55;94716.84;;;7.64;56.45
27425;BME280;15244;49.088;11.886;2023-01-08T18:13:04;94724.59;;;7.62;56.23
27425;BME280;15244;49.088;11.886;2023-01-08T18:18:07;94718.78;;;7.59;56.17
27425;BME280;15244;49.088;11.886;2023-01-08T18:23:10;94714.91;;;7.57;56.25
27425;BME280;15244;49.088;11.886;2023-01-08T18:28:12;94694.38;;;7.56;56.17
27425;BME280;15244;49.088;11.886;2023-01-08T18:33:14;94680.41;;;7.54;56.41
27425;BME280;15244;49.088;11.886;2023-01-08T18:38:17;94675.41;;;7.52;56.40
27425;BME280;15244;49.088;11.886;2023-01-08T18:43:22;94681.19;;;7.51;56.31
27425;BME280;15244;49.088;11.886;2023-01-08T18:48:29;94674.63;;;7.48;56.23
27425;BME280;15244;49.088;11.886;2023-01-08T18:53:38;94678.09;;;7.49;56.34
27425;BME280;15244;49.088;11.886;2023-01-08T18:58:42;94658.34;;;7.48;56.30
27425;BME280;15244;49.088;11.886;2023-01-08T19:03:49;94652.91;;;7.48;56.29
27425;BME280;15244;49.088;11.886;2023-01-08T19:09:08;94633.94;;;7.48;56.73
27425;BME280;15244;49.088;11.886;2023-01-08T19:14:20;94633.94;;;7.48;56.20
27425;BME280;15244;49.088;11.886;2023-01-08T19:19:23;94625.81;;;7.48;56.58
27425;BME280;15244;49.088;11.886;2023-01-08T19:24:25;94616.91;;;7.48;56.43
27425;BME280;15244;49.088;11.886;2023-01-08T19:29:27;94585.16;;;7.45;56.42
27425;BME280;15244;49.088;11.886;2023-01-08T19:34:29;94599.84;;;7.44;56.54
27425;BME280;15244;49.088;11.886;2023-01-08T19:39:31;94597.53;;;7.42;56.38
27425;BME280;15244;49.088;11.886;2023-01-08T19:44:34;94595.22;;;7.41;56.30
27425;BME280;15244;49.088;11.886;2023-01-08T19:49:37;94593.28;;;7.37;56.28
27425;BME280;15244;49.088;11.886;2023-01-08T19:54:39;94590.94;;;7.36;56.12
27425;BME280;15244;49.088;11.886;2023-01-08T19:59:41;94579.34;;;7.35;56.21
27425;BME280;15244;49.088;11.886;2023-01-08T20:04:44;94590.56;;;7.34;56.11
27425;BME280;15244;49.088;11.886;2023-01-08T20:09:45;94588.66;;;7.34;55.85
27425;BME280;15244;49.088;11.886;2023-01-08T20:14:51;94572.75;;;7.33;56.04
27425;BME280;15244;49.088;11.886;2023-01-08T20:19:53;94561.16;;;7.32;56.05
27425;BME280;15244;49.088;11.886;2023-01-08T20:24:54;94544.50;;;7.30;55.85
27425;BME280;15244;49.088;11.886;2023-01-08T20:29:59;94546.81;;;7.28;56.05
27425;BME280;15244;49.088;11.886;2023-01-08T20:35:02;94532.50;;;7.28;55.98
27425;BME280;15244;49.088;11.886;2023-01-08T20:40:05;94526.69;;;7.26;55.75
27425;BME280;15244;49.088;11.886;2023-01-08T20:45:09;94503.84;;;7.27;55.85
27425;BME280;15244;49.088;11.886;2023-01-08T20:50:11;94503.06;;;7.23;55.74
27425;BME280;15244;49.088;11.886;2023-01-08T20:55:20;94519.72;;;7.21;55.83
27425;BME280;15244;49.088;11.886;2023-01-08T21:00:22;94495.31;;;7.21;55.71
27425;BME280;15244;49.088;11.886;2023-01-08T21:05:26;94485.28;;;7.22;55.52
27425;BME280;15244;49.088;11.886;2023-01-08T21:10:28;94475.19;;;7.22;55.84
27425;BME280;15244;49.088;11.886;2023-01-08T21:15:30;94466.28;;;7.22;55.91
27425;BME280;15244;49.088;11.886;2023-01-08T21:20:33;94467.44;;;7.21;55.82
27425;BME280;15244;49.088;11.886;2023-01-08T21:25:34;94462.78;;;7.21;55.88
27425;BME280;15244;49.088;11.886;2023-01-08T21:30:36;94467.84;;;7.23;55.86
27425;BME280;15244;49.088;11.886;2023-01-08T21:35:39;94457.38;;;7.25;55.98
27425;BME280;15244;49.088;11.886;2023-01-08T21:40:41;94450.00;;;7.25;56.01
27425;BME280;15244;49.088;11.886;2023-01-08T21:45:43;94453.09;;;7.27;55.73
27425;BME280;15244;49.088;11.886;2023-01-08T21:50:45;94448.06;;;7.29;55.65
27425;BME280;15244;49.088;11.886;2023-01-08T21:55:47;94441.47;;;7.30;55.88
27425;BME280;15244;49.088;11.886;2023-01-08T22:00:49;94438.38;;;7.32;55.90
27425;BME280;15244;49.088;11.886;2023-01-08T22:05:59;94433.31;;;7.34;55.81
27425;BME280;15244;49.088;11.886;2023-01-08T22:11:06;94427.88;;;7.34;55.97
27425;BME280;15244;49.088;11.886;2023-01-08T22:16:12;94418.59;;;7.35;56.23
27425;BME280;15244;49.088;11.886;2023-01-08T22:21:14;94404.28;;;7.34;56.14
27425;BME280;15244;49.088;11.886;2023-01-08T22:26:17;94388.78;;;7.35;56.12
27425;BME280;15244;49.088;11.886;2023-01-08T22:31:20;94377.53;;;7.36;56.05
27425;BME280;15244;49.088;11.886;2023-01-08T22:36:23;94378.31;;;7.37;55.76
27425;BME280;15244;49.088;11.886;2023-01-08T22:41:25;94375.19;;;7.38;55.82
27425;BME280;15244;49.088;11.886;2023-01-08T22:46:27;94377.13;;;7.38;55.98
27425;BME280;15244;49.088;11.886;2023-01-08T22:51:29;94378.66;;;7.39;55.54
27425;BME280;15244;49.088;11.886;2023-01-08T22:56:31;94375.19;;;7.38;55.76
27425;BME280;15244;49.088;11.886;2023-01-08T23:01:33;94361.25;;;7.40;55.67
27425;BME280;15244;49.088;11.886;2023-01-08T23:06:35;94358.53;;;7.40;55.61
27425;BME280;15244;49.088;11.886;2023-01-08T23:11:40;94344.97;;;7.40;55.88
27425;BME280;15244;49.088;11.886;2023-01-08T23:16:42;94329.47;;;7.41;55.49
27425;BME280;15244;49.088;11.886;2023-01-08T23:21:44;94318.63;;;7.41;55.79
27425;BME280;15244;49.088;11.886;2023-01-08T23:26:46;94315.53;;;7.38;56.02
27425;BME280;15244;49.088;11.886;2023-01-08T23:31:48;94315.94;;;7.41;55.76
27425;BME280;15244;49.088;11.886;2023-01-08T23:36:50;94295.00;;;7.41;55.75
27425;BME280;15244;49.088;11.886;2023-01-08T23:41:52;94300.81;;;7.43;55.89
27425;BME280;15244;49.088;11.886;2023-01-08T23:46:54;94292.66;;;7.43;55.82
27425;BME280;15244;49.088;11.886;2023-01-08T23:51:56;94295.00;;;7.45;55.54
27425;BME280;15244;49.088;11.886;2023-01-08T23:56:57;94284.91;;;7.45;56.13
